Time;durP1;ratioP1;P1;durP2;ratioP2;P2;SDS_P1;SDS_P2;PMS_P1;PMS_P2;Temp;Humidity;BMP_temperature;BMP_pressure;BME280_temperature;BME280_humidity;BME280_pressure;Samples;Min_cycle;Max_cycle;Signal;HPM_P1;HPM_P2
2023/03/27 00:01:53;;;;;;;12.43;0.90;;;7.30;88.70;;;;;;4934866;29;20473;-74
2023/03/27 00:04:20;;;;;;;6.15;1.17;;;7.30;88.50;;;;;;4934927;29;20039;-75
2023/03/27 00:06:47;;;;;;;6.45;0.82;;;7.20;88.50;;;;;;4933339;29;20378;-75
2023/03/27 00:09:14;;;;;;;7.20;1.17;;;7.20;88.70;;;;;;4934652;29;20075;-75
2023/03/27 00:11:40;;;;;;;8.63;1.03;;;7.10;88.20;;;;;;4933873;29;20058;-75
2023/03/27 00:14:06;;;;;;;6.93;1.23;;;7.10;88.10;;;;;;4934575;29;20736;-76
2023/03/27 00:16:32;;;;;;;11.98;1.58;;;7.10;88.30;;;;;;4933496;29;20035;-75
2023/03/27 00:18:59;;;;;;;6.05;1.02;;;7.00;88.40;;;;;;4934293;29;20617;-75
2023/03/27 00:21:25;;;;;;;5.28;0.88;;;7.00;88.30;;;;;;4934588;29;20051;-74
2023/03/27 00:23:51;;;;;;;11.80;1.58;;;6.90;88.30;;;;;;4917888;29;20055;-75
2023/03/27 00:26:17;;;;;;;6.30;1.27;;;6.90;88.60;;;;;;4934380;29;20202;-74
2023/03/27 00:28:42;;;;;;;8.23;0.98;;;6.90;88.60;;;;;;4934592;29;20575;-74
2023/03/27 00:31:10;;;;;;;8.95;1.35;;;6.80;88.60;;;;;;4934056;29;20048;-74
2023/03/27 00:33:36;;;;;;;6.68;1.42;;;6.80;88.70;;;;;;4917306;29;20040;-74
2023/03/27 00:36:02;;;;;;;4.22;1.17;;;6.80;88.70;;;;;;4934011;29;20027;-74
2023/03/27 00:38:28;;;;;;;6.00;0.88;;;6.70;88.50;;;;;;4934807;29;20458;-74
2023/03/27 00:40:55;;;;;;;7.63;1.00;;;6.70;88.80;;;;;;4917310;29;20032;-74
2023/03/27 00:43:32;;;;;;;4.22;0.82;;;6.70;88.80;;;;;;4933992;29;20031;-75
2023/03/27 00:46:06;;;;;;;6.43;0.98;;;6.70;89.10;;;;;;4934147;29;20043;-76
2023/03/27 00:48:35;;;;;;;6.32;0.98;;;6.60;88.90;;;;;;4932858;29;20067;-77
2023/03/27 00:51:03;;;;;;;4.72;0.60;;;6.60;89.10;;;;;;4933724;29;20028;-76
2023/03/27 00:53:29;;;;;;;5.07;0.93;;;6.60;89.00;;;;;;4934873;29;20034;-76
2023/03/27 00:56:00;;;;;;;5.85;1.25;;;6.60;89.10;;;;;;4933134;29;20059;-77
2023/03/27 00:58:35;;;;;;;7.05;1.38;;;6.70;89.30;;;;;;4933986;29;20032;-76
2023/03/27 01:01:01;;;;;;;10.20;3.03;;;6.70;89.20;;;;;;4933040;29;20322;-77
2023/03/27 01:03:30;;;;;;;4.53;1.33;;;6.60;89.20;;;;;;4916976;29;20087;-77
2023/03/27 01:05:59;;;;;;;4.82;1.00;;;6.60;89.20;;;;;;4934280;29;20338;-76
2023/03/27 01:08:27;;;;;;;5.60;1.25;;;6.50;89.20;;;;;;4917309;29;20362;-77
2023/03/27 01:11:08;;;;;;;9.23;1.50;;;6.40;89.40;;;;;;4917029;29;20039;-76
2023/03/27 01:13:52;;;;;;;13.98;1.65;;;6.50;89.60;;;;;;4916974;29;20027;-77
2023/03/27 01:16:33;;;;;;;9.50;1.65;;;6.40;89.60;;;;;;4934071;29;20046;-76
2023/03/27 01:19:08;;;;;;;6.10;0.98;;;6.30;89.70;;;;;;4934178;29;20032;-76
2023/03/27 01:22:04;;;;;;;4.68;1.10;;;6.40;89.90;;;;;;4933926;29;20034;-75
2023/03/27 01:24:53;;;;;;;4.63;1.25;;;6.20;90.00;;;;;;4916990;29;20027;-75
2023/03/27 01:27:36;;;;;;;4.60;0.90;;;6.10;90.20;;;;;;4934290;29;20027;-74
2023/03/27 01:30:09;;;;;;;3.97;0.85;;;6.20;90.30;;;;;;4933728;29;20016;-76
2023/03/27 01:32:46;;;;;;;14.23;1.63;;;6.10;90.40;;;;;;4933479;29;20667;-75
2023/03/27 01:35:31;;;;;;;8.07;1.13;;;6.20;90.40;;;;;;4937036;29;20035;-75
2023/03/27 01:38:24;;;;;;;15.10;1.10;;;6.20;90.50;;;;;;4936138;29;20067;-75
2023/03/27 01:41:00;;;;;;;10.95;1.55;;;6.10;90.50;;;;;;4953270;29;20039;-76
2023/03/27 01:43:49;;;;;;;8.38;0.98;;;6.10;90.80;;;;;;4954119;29;20090;-75
2023/03/27 01:46:28;;;;;;;8.68;1.00;;;5.80;91.10;;;;;;4915931;29;20074;-75
2023/03/27 01:49:11;;;;;;;8.85;1.13;;;5.90;91.10;;;;;;4936273;29;20047;-75
2023/03/27 01:51:50;;;;;;;4.53;1.65;;;5.80;91.20;;;;;;4953504;29;20058;-75
2023/03/27 01:54:36;;;;;;;10.15;1.25;;;5.80;91.40;;;;;;4935933;29;20027;-75
2023/03/27 01:57:09;;;;;;;8.75;1.25;;;5.70;91.30;;;;;;4952855;29;20417;-75
2023/03/27 01:59:40;;;;;;;3.97;0.90;;;5.70;91.40;;;;;;4953146;29;20497;-76
2023/03/27 02:02:27;;;;;;;10.45;1.20;;;5.70;91.50;;;;;;4938736;29;20045;-75
2023/03/27 02:05:26;;;;;;;10.80;1.30;;;5.60;91.60;;;;;;4939963;29;20709;-75
2023/03/27 02:07:58;;;;;;;5.53;1.10;;;5.70;91.70;;;;;;4939482;29;20386;-74
2023/03/27 02:10:31;;;;;;;9.13;1.13;;;5.70;91.50;;;;;;4955821;29;20031;-75
2023/03/27 02:13:06;;;;;;;11.90;1.65;;;5.60;91.60;;;;;;4955976;29;20094;-74
2023/03/27 02:15:35;;;;;;;11.70;1.25;;;5.40;91.80;;;;;;4955918;29;20035;-75
2023/03/27 02:18:08;;;;;;;8.13;0.90;;;5.50;91.80;;;;;;4956086;29;20324;-74
2023/03/27 02:20:36;;;;;;;9.10;1.55;;;5.30;91.90;;;;;;4956075;29;20097;-75
2023/03/27 02:23:03;;;;;;;10.25;1.23;;;5.30;92.00;;;;;;4955844;28;20421;-75
2023/03/27 02:25:43;;;;;;;9.93;1.23;;;5.30;92.00;;;;;;4938825;29;20380;-74
2023/03/27 02:28:50;;;;;;;9.90;1.20;;;5.40;92.00;;;;;;4938727;29;20489;-75
2023/03/27 02:31:46;;;;;;;6.15;1.20;;;5.20;92.00;;;;;;4955774;29;20059;-74
2023/03/27 02:34:27;;;;;;;11.88;1.38;;;5.30;91.90;;;;;;4955538;29;20409;-73
2023/03/27 02:37:08;;;;;;;14.20;1.90;;;5.30;91.90;;;;;;4955582;29;20063;-75
2023/03/27 02:39:37;;;;;;;16.67;1.77;;;5.40;91.90;;;;;;4955363;29;20027;-75
2023/03/27 02:42:29;;;;;;;6.57;1.50;;;5.40;92.00;;;;;;4955404;29;20086;-75
2023/03/27 02:45:03;;;;;;;12.57;1.40;;;5.40;92.10;;;;;;4956149;29;20033;-75
2023/03/27 02:47:41;;;;;;;7.95;0.93;;;5.50;92.00;;;;;;4955706;29;20039;-75
2023/03/27 02:50:15;;;;;;;5.28;1.20;;;5.30;92.10;;;;;;4955513;29;20031;-74
2023/03/27 02:52:50;;;;;;;8.63;1.33;;;5.30;92.30;;;;;;4955624;29;20098;-75
2023/03/27 02:55:32;;;;;;;12.50;1.70;;;5.30;92.40;;;;;;4938613;29;20365;-76
2023/03/27 02:58:04;;;;;;;11.32;1.52;;;5.10;92.60;;;;;;4955285;29;20028;-75
2023/03/27 03:00:38;;;;;;;9.15;1.27;;;5.10;92.70;;;;;;4955146;29;20035;-74
2023/03/27 03:03:11;;;;;;;10.48;1.10;;;5.10;92.90;;;;;;4955078;29;20023;-74
2023/03/27 03:05:36;;;;;;;8.52;1.98;;;5.20;92.70;;;;;;4938491;29;20107;-73
2023/03/27 03:08:03;;;;;;;6.55;1.52;;;5.30;92.70;;;;;;4955141;29;20111;-75
2023/03/27 03:10:30;;;;;;;12.65;1.33;;;5.30;92.60;;;;;;4954855;29;20035;-74
2023/03/27 03:12:55;;;;;;;11.73;2.30;;;5.30;92.70;;;;;;4937646;29;20369;-74
2023/03/27 03:15:21;;;;;;;7.97;1.33;;;5.20;92.70;;;;;;4938063;29;20035;-73
2023/03/27 03:17:47;;;;;;;13.45;1.45;;;5.20;92.70;;;;;;4955312;29;20019;-74
2023/03/27 03:20:15;;;;;;;13.45;1.50;;;5.00;92.90;;;;;;4954622;29;20443;-73
2023/03/27 03:22:41;;;;;;;10.07;1.30;;;5.00;93.00;;;;;;4954500;28;20062;-73
2023/03/27 03:25:07;;;;;;;7.72;1.10;;;5.10;93.00;;;;;;4954586;29;20035;-72
2023/03/27 03:27:33;;;;;;;10.23;1.23;;;5.00;93.00;;;;;;4954697;29;20039;-71
2023/03/27 03:29:59;;;;;;;13.80;1.25;;;4.90;93.30;;;;;;4937929;29;20093;-73
2023/03/27 03:32:25;;;;;;;11.02;1.70;;;5.00;93.40;;;;;;4954373;29;20090;-74
2023/03/27 03:34:51;;;;;;;7.63;1.27;;;5.00;93.50;;;;;;4954499;29;20357;-74
2023/03/27 03:37:17;;;;;;;13.95;1.90;;;5.20;93.40;;;;;;4954464;29;20031;-74
2023/03/27 03:39:42;;;;;;;8.50;1.48;;;5.10;93.60;;;;;;4954186;29;20265;-74
2023/03/27 03:42:08;;;;;;;6.65;1.45;;;5.10;93.70;;;;;;4954357;29;20031;-74
2023/03/27 03:44:36;;;;;;;8.65;1.42;;;5.10;94.00;;;;;;4937611;29;20049;-74
2023/03/27 03:47:02;;;;;;;14.50;1.75;;;5.10;94.20;;;;;;4954494;29;20028;-74
2023/03/27 03:49:27;;;;;;;14.00;2.20;;;5.10;94.20;;;;;;4954211;29;20055;-73
2023/03/27 03:51:53;;;;;;;7.43;1.48;;;5.00;94.70;;;;;;4954135;29;20098;-74
2023/03/27 03:54:19;;;;;;;19.83;1.95;;;5.00;94.60;;;;;;4954064;29;20082;-74
2023/03/27 03:56:44;;;;;;;11.65;2.28;;;5.10;94.80;;;;;;4954568;29;20109;-73
2023/03/27 03:59:13;;;;;;;15.30;2.00;;;5.20;94.70;;;;;;4954208;29;20493;-73
2023/03/27 04:01:39;;;;;;;11.18;1.75;;;5.10;94.90;;;;;;4954136;29;20089;-74
2023/03/27 04:04:07;;;;;;;14.25;1.88;;;5.10;95.00;;;;;;4954071;29;20045;-73
2023/03/27 04:06:36;;;;;;;16.52;2.17;;;5.10;95.00;;;;;;4954105;29;20039;-73
2023/03/27 04:09:02;;;;;;;13.15;1.73;;;5.10;95.10;;;;;;4954163;29;20033;-75
2023/03/27 04:11:28;;;;;;;13.60;1.25;;;5.10;95.20;;;;;;4937475;29;20031;-73
2023/03/27 04:13:54;;;;;;;14.57;2.60;;;5.10;95.60;;;;;;4954225;29;20042;-73
2023/03/27 04:16:20;;;;;;;13.00;1.60;;;4.90;95.40;;;;;;4937261;29;20106;-73
2023/03/27 04:18:48;;;;;;;13.88;2.03;;;4.90;95.60;;;;;;4936733;29;20051;-73
2023/03/27 04:21:14;;;;;;;9.02;1.63;;;4.90;95.70;;;;;;4936630;29;20043;-73
2023/03/27 04:23:44;;;;;;;11.52;1.70;;;5.00;95.50;;;;;;4953701;28;20125;-73
2023/03/27 04:26:11;;;;;;;11.75;1.63;;;5.00;95.50;;;;;;4953407;29;20042;-74
2023/03/27 04:28:38;;;;;;;8.45;1.42;;;5.00;95.60;;;;;;4936581;29;20035;-74
2023/03/27 04:31:06;;;;;;;6.63;1.52;;;5.10;95.50;;;;;;4935788;29;20047;-73
2023/03/27 04:33:39;;;;;;;10.13;1.48;;;5.10;95.40;;;;;;4953477;29;20035;-73
2023/03/27 04:36:08;;;;;;;13.65;2.03;;;5.10;95.30;;;;;;4953753;29;20070;-74
2023/03/27 04:38:39;;;;;;;7.95;1.40;;;5.10;95.40;;;;;;4954055;29;20492;-74
2023/03/27 04:41:05;;;;;;;16.63;1.85;;;5.20;95.20;;;;;;4936392;29;20039;-74
2023/03/27 04:43:35;;;;;;;11.77;1.50;;;5.30;95.00;;;;;;4953613;29;20031;-75
2023/03/27 04:46:05;;;;;;;11.95;2.28;;;5.20;95.10;;;;;;4953536;29;20036;-74
2023/03/27 04:48:31;;;;;;;14.30;2.00;;;5.30;95.30;;;;;;4953530;29;20098;-75
2023/03/27 04:50:57;;;;;;;9.48;1.63;;;5.20;95.10;;;;;;4953824;29;20491;-74
2023/03/27 04:53:22;;;;;;;10.77;1.73;;;5.10;95.30;;;;;;4953201;29;20032;-75
2023/03/27 04:55:52;;;;;;;10.60;2.03;;;5.00;95.40;;;;;;4953167;29;20055;-75
2023/03/27 04:58:17;;;;;;;13.05;1.80;;;5.20;95.20;;;;;;4935954;29;20110;-74
2023/03/27 05:00:49;;;;;;;9.10;1.60;;;5.30;95.10;;;;;;4953119;29;20141;-74
2023/03/27 05:03:17;;;;;;;6.47;1.63;;;5.30;95.10;;;;;;4953043;29;20461;-74
2023/03/27 05:05:48;;;;;;;14.20;1.70;;;5.20;95.10;;;;;;4953613;29;20019;-75
2023/03/27 05:08:14;;;;;;;6.57;1.67;;;5.10;95.10;;;;;;4953161;29;20141;-75
2023/03/27 05:10:40;;;;;;;7.78;1.58;;;4.90;95.50;;;;;;4952520;29;20039;-74
2023/03/27 05:13:06;;;;;;;16.20;1.50;;;4.90;95.60;;;;;;4952787;29;20049;-74
2023/03/27 05:15:32;;;;;;;13.10;1.45;;;4.90;95.80;;;;;;4953180;29;20031;-75
2023/03/27 05:17:59;;;;;;;13.55;1.55;;;4.90;95.70;;;;;;4953132;29;20015;-75
2023/03/27 05:20:25;;;;;;;4.45;1.58;;;5.00;95.60;;;;;;4953019;29;20080;-74
2023/03/27 05:22:53;;;;;;;13.18;1.55;;;5.00;95.60;;;;;;4952657;28;20039;-75
2023/03/27 05:25:19;;;;;;;9.85;1.92;;;5.00;95.50;;;;;;4935589;29;20126;-74
2023/03/27 05:27:49;;;;;;;9.52;1.70;;;5.00;95.50;;;;;;4935600;29;20122;-73
2023/03/27 05:30:17;;;;;;;9.90;1.75;;;5.10;95.70;;;;;;4952614;29;20067;-74
2023/03/27 05:32:47;;;;;;;9.35;2.22;;;5.10;95.40;;;;;;4952713;29;20023;-74
2023/03/27 05:35:17;;;;;;;8.52;1.75;;;5.00;95.40;;;;;;4953947;28;20035;-69
2023/03/27 05:37:46;;;;;;;11.35;3.33;;;4.80;95.50;;;;;;4956703;29;20050;-73
2023/03/27 05:40:14;;;;;;;10.20;2.22;;;4.80;95.90;;;;;;4956392;29;20054;-73
2023/03/27 05:42:46;;;;;;;10.40;1.60;;;5.00;95.80;;;;;;4939660;29;20115;-72
2023/03/27 05:45:13;;;;;;;13.32;1.35;;;5.10;95.50;;;;;;4956245;29;20050;-73
2023/03/27 05:47:51;;;;;;;11.00;1.95;;;5.10;95.50;;;;;;4956719;29;20031;-73
2023/03/27 05:50:19;;;;;;;13.68;2.45;;;5.10;95.40;;;;;;4956026;29;20035;-73
2023/03/27 05:52:45;;;;;;;8.25;1.45;;;5.10;95.30;;;;;;4956159;29;20174;-73
2023/03/27 05:55:13;;;;;;;12.30;2.00;;;5.20;95.60;;;;;;4956868;29;20462;-72
2023/03/27 05:57:40;;;;;;;5.47;1.20;;;5.20;95.30;;;;;;4957290;29;20031;-72
2023/03/27 06:00:10;;;;;;;6.32;1.50;;;5.20;95.20;;;;;;4956242;29;20027;-72
2023/03/27 06:02:37;;;;;;;11.15;1.80;;;5.10;95.20;;;;;;4956350;29;20019;-72
2023/03/27 06:05:09;;;;;;;9.23;1.55;;;5.00;95.50;;;;;;4956127;29;20067;-71
2023/03/27 06:07:37;;;;;;;9.95;1.63;;;5.10;95.40;;;;;;4955927;29;20050;-72
2023/03/27 06:10:04;;;;;;;9.60;1.42;;;4.90;95.40;;;;;;4938513;29;20031;-73
2023/03/27 06:12:29;;;;;;;12.88;1.75;;;5.00;95.60;;;;;;4938476;29;20330;-71
2023/03/27 06:14:55;;;;;;;12.73;1.38;;;5.10;95.40;;;;;;4956133;29;20034;-76
2023/03/27 06:17:20;;;;;;;10.68;1.85;;;5.10;95.30;;;;;;4955705;29;20059;-72
2023/03/27 06:19:48;;;;;;;10.70;1.27;;;5.10;95.30;;;;;;4955664;29;20039;-71
2023/03/27 06:22:13;;;;;;;10.50;1.47;;;5.00;95.30;;;;;;4956561;29;20122;-72
2023/03/27 06:24:39;;;;;;;7.78;1.30;;;5.10;95.40;;;;;;4954989;28;20372;-71
2023/03/27 06:27:04;;;;;;;12.13;1.67;;;5.10;95.40;;;;;;4955387;29;20114;-73
2023/03/27 06:29:30;;;;;;;6.43;1.92;;;5.20;95.40;;;;;;4955898;29;20042;-73
2023/03/27 06:31:57;;;;;;;5.70;1.25;;;5.20;95.20;;;;;;4955351;29;20062;-72
2023/03/27 06:34:23;;;;;;;12.23;1.70;;;5.20;95.30;;;;;;4938297;29;20027;-74
2023/03/27 06:36:49;;;;;;;13.25;1.73;;;5.30;95.30;;;;;;4955240;29;20594;-71
2023/03/27 06:39:15;;;;;;;11.50;1.83;;;5.20;95.30;;;;;;4955313;29;20043;-72
2023/03/27 06:41:41;;;;;;;10.55;2.08;;;5.20;95.30;;;;;;4956070;29;20023;-72
2023/03/27 06:44:06;;;;;;;5.57;1.33;;;5.10;95.50;;;;;;4944417;29;20042;-74
2023/03/27 06:46:32;;;;;;;3.53;1.40;;;5.40;95.70;;;;;;4917488;29;20047;-74
2023/03/27 06:48:58;;;;;;;7.82;1.52;;;5.50;95.20;;;;;;4917179;29;20062;-72
2023/03/27 06:51:25;;;;;;;9.00;2.47;;;5.30;95.30;;;;;;4916640;29;20040;-72
2023/03/27 06:53:52;;;;;;;13.02;1.67;;;5.30;95.50;;;;;;4917279;29;20025;-73
2023/03/27 06:56:18;;;;;;;11.50;2.10;;;5.30;95.50;;;;;;4900409;29;20036;-74
2023/03/27 06:58:44;;;;;;;10.15;1.38;;;5.40;95.60;;;;;;4915783;29;20051;-74
2023/03/27 07:01:10;;;;;;;6.90;1.52;;;5.30;95.70;;;;;;4916947;29;20044;-72
2023/03/27 07:03:36;;;;;;;9.35;2.08;;;5.20;95.70;;;;;;4899864;29;20036;-73
2023/03/27 07:06:01;;;;;;;10.23;2.05;;;5.20;95.90;;;;;;4915971;29;20436;-74
2023/03/27 07:08:30;;;;;;;10.07;1.88;;;5.30;95.80;;;;;;4901595;29;20107;-75
2023/03/27 07:10:56;;;;;;;10.20;2.72;;;5.40;95.90;;;;;;4904267;29;20037;-74
2023/03/27 07:13:21;;;;;;;15.20;1.85;;;5.50;95.70;;;;;;4918230;29;20032;-74
2023/03/27 07:15:47;;;;;;;11.68;1.83;;;5.60;95.60;;;;;;4901388;29;20036;-73
2023/03/27 07:18:14;;;;;;;8.70;2.03;;;5.50;95.50;;;;;;4917252;29;20024;-73
2023/03/27 07:20:40;;;;;;;8.82;2.20;;;5.70;95.70;;;;;;4918725;29;20024;-75
2023/03/27 07:23:05;;;;;;;11.90;2.60;;;5.80;95.40;;;;;;4900937;29;20036;-74
2023/03/27 07:25:36;;;;;;;7.13;1.60;;;6.00;95.50;;;;;;4901374;29;20037;-75
2023/03/27 07:28:15;;;;;;;11.07;1.85;;;6.20;95.20;;;;;;4917858;29;20058;-73
2023/03/27 07:30:41;;;;;;;9.48;2.38;;;6.40;95.10;;;;;;4917870;29;20059;-74
2023/03/27 07:33:08;;;;;;;13.77;1.73;;;6.40;95.10;;;;;;4918207;29;20514;-75
2023/03/27 07:35:44;;;;;;;17.27;2.60;;;6.30;94.90;;;;;;4918993;29;20032;-74
2023/03/27 07:38:11;;;;;;;14.50;1.83;;;6.50;94.90;;;;;;4916718;29;20302;-76
2023/03/27 07:40:37;;;;;;;8.93;2.30;;;6.50;94.50;;;;;;4917857;29;20055;-72
2023/03/27 07:43:06;;;;;;;10.65;2.47;;;6.70;94.60;;;;;;4917856;29;20056;-76
2023/03/27 07:45:33;;;;;;;16.23;3.45;;;6.90;94.10;;;;;;4917603;29;20454;-74
2023/03/27 07:48:10;;;;;;;13.07;2.30;;;6.90;94.10;;;;;;4899989;29;20028;-74
2023/03/27 07:50:36;;;;;;;19.63;2.17;;;6.90;94.30;;;;;;4914966;29;20505;-72
2023/03/27 07:53:05;;;;;;;10.05;2.25;;;6.90;94.50;;;;;;4916033;29;20744;-73
2023/03/27 07:55:31;;;;;;;9.00;1.83;;;7.00;94.90;;;;;;4916223;29;20112;-73
2023/03/27 07:57:57;;;;;;;8.45;1.52;;;7.10;94.70;;;;;;4898689;29;20040;-73
2023/03/27 08:00:23;;;;;;;12.18;2.05;;;7.30;94.40;;;;;;4915246;29;20589;-74
2023/03/27 08:02:49;;;;;;;15.55;2.08;;;7.30;94.10;;;;;;4899356;29;20047;-73
2023/03/27 08:05:15;;;;;;;8.88;1.77;;;7.20;94.30;;;;;;4905279;29;20036;-73
2023/03/27 08:07:44;;;;;;;7.10;2.05;;;7.20;93.90;;;;;;4915680;29;20528;-72
2023/03/27 08:10:10;;;;;;;8.15;1.45;;;7.50;93.90;;;;;;4915572;29;20314;-73
2023/03/27 08:12:37;;;;;;;7.65;1.40;;;7.60;93.80;;;;;;4915520;29;20072;-74
2023/03/27 08:15:04;;;;;;;10.40;2.10;;;7.60;93.40;;;;;;4915264;29;20054;-73
2023/03/27 08:17:32;;;;;;;8.00;1.85;;;7.80;93.30;;;;;;4914827;29;20024;-73
2023/03/27 08:19:59;;;;;;;11.63;2.78;;;7.70;92.90;;;;;;4898619;29;20024;-72
2023/03/27 08:22:25;;;;;;;9.77;1.50;;;7.70;92.90;;;;;;4915487;29;20477;-73
2023/03/27 08:24:50;;;;;;;8.95;1.20;;;7.90;92.70;;;;;;4915209;29;20302;-73
2023/03/27 08:27:17;;;;;;;8.60;1.60;;;7.90;92.40;;;;;;4915468;29;20087;-73
2023/03/27 08:29:43;;;;;;;15.65;1.92;;;8.00;92.00;;;;;;4915712;29;20473;-77
2023/03/27 08:32:10;;;;;;;10.85;1.42;;;8.00;91.90;;;;;;4914855;29;20110;-72
2023/03/27 08:34:37;;;;;;;5.97;1.38;;;8.20;91.90;;;;;;4914985;29;20074;-73
2023/03/27 08:37:04;;;;;;;13.93;1.98;;;8.20;91.70;;;;;;4915250;29;20055;-75
2023/03/27 08:39:29;;;;;;;20.63;2.08;;;8.20;91.70;;;;;;4898552;29;20039;-76
2023/03/27 08:41:59;;;;;;;10.07;1.65;;;8.40;91.80;;;;;;4915590;29;20095;-74
2023/03/27 08:44:28;;;;;;;9.68;2.28;;;8.90;91.30;;;;;;4915468;29;20059;-75
2023/03/27 08:47:02;;;;;;;9.18;1.60;;;8.80;90.90;;;;;;4915142;29;20036;-74
2023/03/27 08:49:35;;;;;;;16.63;1.75;;;8.40;90.90;;;;;;4914857;29;20036;-75
2023/03/27 08:52:07;;;;;;;10.02;1.70;;;8.40;91.30;;;;;;4914644;29;20048;-76
2023/03/27 08:54:35;;;;;;;14.52;2.13;;;8.70;91.10;;;;;;4914582;29;20048;-76
2023/03/27 08:57:13;;;;;;;3.45;1.20;;;8.40;91.10;;;;;;4914813;29;20047;-75
2023/03/27 08:59:39;;;;;;;6.75;1.63;;;8.90;90.90;;;;;;4915132;29;20071;-74
2023/03/27 09:02:38;;;;;;;14.50;2.08;;;9.10;90.50;;;;;;4914978;29;20063;-75
2023/03/27 09:05:43;;;;;;;6.97;3.40;;;8.70;90.60;;;;;;4914323;29;20040;-76
2023/03/27 09:08:23;;;;;;;19.42;2.58;;;8.50;91.00;;;;;;4898172;29;20063;-75
2023/03/27 09:11:30;;;;;;;11.82;3.53;;;8.90;90.50;;;;;;4913117;29;20383;-75
2023/03/27 09:13:55;;;;;;;6.47;1.42;;;9.50;90.00;;;;;;4877357;29;20059;-72
2023/03/27 09:16:30;;;;;;;4.90;1.55;;;10.10;88.20;;;;;;4914637;29;20410;-76
2023/03/27 09:18:56;;;;;;;6.70;1.27;;;11.20;86.40;;;;;;4913738;29;20355;-74
2023/03/27 09:21:45;;;;;;;5.93;1.17;;;12.30;83.10;;;;;;4914768;29;20095;-75
2023/03/27 09:24:21;;;;;;;8.93;1.23;;;13.80;81.30;;;;;;4915010;29;20024;-75
2023/03/27 09:26:48;;;;;;;3.88;1.20;;;14.20;76.30;;;;;;4916540;29;20028;-75
2023/03/27 09:29:24;;;;;;;6.20;0.93;;;14.40;75.30;;;;;;4897930;29;20355;-75
2023/03/27 09:31:53;;;;;;;5.07;1.55;;;14.80;74.50;;;;;;4912880;29;20040;-74
2023/03/27 09:34:32;;;;;;;7.35;1.75;;;15.20;70.10;;;;;;4914362;29;20048;-75
2023/03/27 09:36:59;;;;;;;3.72;0.85;;;14.70;69.40;;;;;;4916094;29;20040;-75
2023/03/27 09:39:32;;;;;;;6.03;1.02;;;13.60;69.50;;;;;;4915809;29;20091;-76
2023/03/27 09:42:09;;;;;;;6.00;1.58;;;13.40;70.70;;;;;;4914754;29;20031;-75
2023/03/27 09:44:38;;;;;;;7.97;1.37;;;13.70;71.20;;;;;;4915533;29;20533;-75
2023/03/27 09:47:13;;;;;;;3.30;0.90;;;14.40;71.00;;;;;;4915768;29;20059;-77
2023/03/27 09:49:44;;;;;;;8.70;1.45;;;14.50;67.20;;;;;;4914667;29;20028;-76
2023/03/27 09:52:39;;;;;;;8.15;1.38;;;13.90;69.00;;;;;;4914469;29;20040;-76
2023/03/27 09:55:33;;;;;;;6.00;1.25;;;13.10;69.20;;;;;;4915027;29;20881;-76
2023/03/27 09:58:19;;;;;;;4.40;0.90;;;12.50;70.80;;;;;;4897491;29;20051;-75
2023/03/27 10:00:45;;;;;;;5.97;1.15;;;11.70;72.50;;;;;;4917647;29;20032;-75
2023/03/27 10:03:16;;;;;;;4.90;1.13;;;11.20;73.70;;;;;;4916627;29;20047;-75
2023/03/27 10:05:43;;;;;;;3.30;1.05;;;10.70;75.80;;;;;;4914668;29;20108;-74
2023/03/27 10:08:36;;;;;;;4.53;1.17;;;10.50;77.30;;;;;;4914225;29;20036;-74
2023/03/27 10:11:06;;;;;;;6.95;0.98;;;10.50;78.30;;;;;;4914064;29;20036;-76
2023/03/27 10:13:32;;;;;;;6.63;1.25;;;10.10;78.50;;;;;;4913260;29;20062;-75
2023/03/27 10:16:05;;;;;;;6.93;1.42;;;10.00;80.10;;;;;;4914514;29;20470;-75
2023/03/27 10:18:33;;;;;;;3.03;1.08;;;9.90;82.10;;;;;;4916259;29;20367;-74
2023/03/27 10:21:05;;;;;;;4.38;1.17;;;10.30;80.40;;;;;;4916383;29;20035;-75
2023/03/27 10:23:42;;;;;;;6.25;1.67;;;10.60;78.90;;;;;;4919004;29;20095;-77
2023/03/27 10:26:12;;;;;;;5.05;1.52;;;11.10;78.10;;;;;;4918226;29;20047;-74
2023/03/27 10:28:45;;;;;;;8.20;1.25;;;11.10;77.60;;;;;;4917529;29;20043;-74
2023/03/27 10:31:31;;;;;;;5.43;1.40;;;10.40;79.10;;;;;;4917404;29;20490;-74
2023/03/27 10:34:00;;;;;;;3.17;0.77;;;10.30;82.60;;;;;;4916403;29;20040;-73
2023/03/27 10:36:30;;;;;;;6.15;1.20;;;10.90;83.80;;;;;;4917302;29;20343;-70
2023/03/27 10:39:10;;;;;;;8.13;1.60;;;12.10;87.50;;;;;;4917642;29;20024;-70
2023/03/27 10:41:37;;;;;;;3.28;1.02;;;13.70;84.90;;;;;;4917476;29;20040;-73
2023/03/27 10:44:24;;;;;;;7.55;1.00;;;14.30;79.30;;;;;;4917070;29;20058;-73
2023/03/27 10:46:51;;;;;;;6.38;1.45;;;13.90;76.00;;;;;;4917249;29;20044;-75
2023/03/27 10:49:42;;;;;;;4.50;1.27;;;14.40;75.90;;;;;;4916963;29;20051;-73
2023/03/27 10:52:24;;;;;;;2.95;1.10;;;15.20;72.40;;;;;;4916841;29;20502;-76
2023/03/27 10:55:05;;;;;;;3.72;0.90;;;15.50;66.40;;;;;;4900355;29;20044;-76
2023/03/27 10:57:36;;;;;;;2.10;0.82;;;15.10;67.90;;;;;;4917010;29;20460;-73
2023/03/27 11:00:31;;;;;;;1.65;0.68;;;15.00;71.80;;;;;;4916919;29;20024;-73
2023/03/27 11:03:16;;;;;;;2.35;0.63;;;14.10;74.40;;;;;;4917134;29;20371;-73
2023/03/27 11:05:46;;;;;;;3.50;0.50;;;13.30;75.70;;;;;;4916728;29;20340;-75
2023/03/27 11:08:11;;;;;;;1.10;0.38;;;12.70;76.50;;;;;;4915750;29;20035;-73
2023/03/27 11:10:41;;;;;;;3.80;0.63;;;12.00;77.90;;;;;;4916696;29;20411;-73
2023/03/27 11:13:09;;;;;;;1.48;1.10;;;11.70;79.80;;;;;;4899830;29;20047;-72
2023/03/27 11:16:14;;;;;;;0.65;0.40;;;10.90;81.10;;;;;;4916721;29;20040;-73
2023/03/27 11:18:52;;;;;;;2.95;0.80;;;10.60;82.00;;;;;;4916738;29;20494;-74
2023/03/27 11:21:31;;;;;;;6.57;3.08;;;11.00;84.00;;;;;;4915357;29;20064;-73
2023/03/27 11:24:02;;;;;;;0.90;0.40;;;12.50;81.30;;;;;;4916899;29;20395;-73
2023/03/27 11:26:52;;;;;;;1.88;0.60;;;13.90;79.30;;;;;;4916664;29;20438;-72
2023/03/27 11:29:21;;;;;;;6.30;1.10;;;14.20;75.30;;;;;;4917328;29;20032;-73
2023/03/27 11:31:50;;;;;;;2.35;0.77;;;15.40;76.70;;;;;;4915477;29;20056;-75
2023/03/27 11:34:24;;;;;;;1.98;0.73;;;16.60;73.70;;;;;;4917520;29;20054;-73
2023/03/27 11:37:13;;;;;;;2.85;0.80;;;17.00;70.80;;;;;;4901695;29;20036;-72
2023/03/27 11:40:00;;;;;;;2.10;0.55;;;14.90;68.80;;;;;;4882740;29;20115;-72
2023/03/27 11:42:31;;;;;;;1.77;0.63;;;13.40;73.30;;;;;;4915277;29;20036;-73
2023/03/27 11:44:57;;;;;;;1.08;0.50;;;13.00;75.50;;;;;;4916785;29;20057;-72
2023/03/27 11:47:44;;;;;;;2.78;0.70;;;12.90;72.70;;;;;;4914935;29;20113;-73
2023/03/27 11:50:24;;;;;;;3.70;0.95;;;12.70;74.00;;;;;;4915985;29;20081;-73
2023/03/27 11:53:21;;;;;;;2.58;0.60;;;12.40;74.70;;;;;;4916547;29;20135;-72
2023/03/27 11:56:24;;;;;;;1.73;0.93;;;12.20;73.90;;;;;;4915895;29;20091;-71
2023/03/27 11:58:58;;;;;;;1.08;0.60;;;12.10;75.60;;;;;;4915836;29;20037;-71
2023/03/27 12:01:34;;;;;;;2.90;0.80;;;12.00;75.30;;;;;;4916127;29;20450;-72
2023/03/27 12:03:59;;;;;;;3.55;0.90;;;11.90;74.60;;;;;;4916397;29;20047;-72
2023/03/27 12:06:54;;;;;;;3.60;0.75;;;11.40;75.90;;;;;;4914588;29;20040;-70
2023/03/27 12:09:44;;;;;;;2.30;0.63;;;11.40;77.80;;;;;;4916055;29;20489;-71
2023/03/27 12:12:23;;;;;;;1.23;0.30;;;11.40;76.40;;;;;;4916616;29;20031;-72
2023/03/27 12:15:13;;;;;;;2.97;0.38;;;11.30;76.20;;;;;;4916993;29;20458;-72
2023/03/27 12:17:53;;;;;;;2.85;0.57;;;10.90;76.50;;;;;;4915668;29;20040;-72
2023/03/27 12:20:51;;;;;;;1.98;0.60;;;11.00;76.60;;;;;;4916115;29;20179;-71
2023/03/27 12:23:26;;;;;;;;;;;11.20;76.30;;;;;;4915841;29;20080;-72
2023/03/27 12:26:21;;;;;;;3.85;0.80;;;11.10;75.50;;;;;;4915689;29;20005;-71
2023/03/27 12:29:41;;;;;;;2.88;0.57;;;10.70;73.90;;;;;;4915024;29;20086;-71
2023/03/27 12:32:17;;;;;;;4.93;0.75;;;10.70;74.20;;;;;;4841129;29;20503;-72
2023/03/27 12:34:55;;;;;;;1.98;0.60;;;10.90;73.90;;;;;;4856752;29;20072;-71
2023/03/27 12:37:29;;;;;;;2.40;0.55;;;10.60;74.30;;;;;;4892264;29;20043;-72
2023/03/27 12:39:59;;;;;;;4.15;0.55;;;10.60;74.40;;;;;;4916145;29;20486;-72
2023/03/27 12:42:51;;;;;;;2.30;0.55;;;10.70;74.40;;;;;;4915160;29;20088;-72
2023/03/27 12:45:23;;;;;;;4.50;1.10;;;10.60;73.70;;;;;;4915236;29;20035;-71
2023/03/27 12:48:08;;;;;;;5.47;0.70;;;10.20;76.30;;;;;;4899384;29;20088;-71
2023/03/27 12:50:42;;;;;;;1.20;0.30;;;10.40;78.20;;;;;;4915022;29;20044;-72
2023/03/27 12:53:19;;;;;;;3.65;0.55;;;9.90;80.60;;;;;;4915176;29;20028;-72
2023/03/27 12:55:45;;;;;;;2.70;0.88;;;9.70;81.10;;;;;;4914826;29;20076;-71
2023/03/27 12:58:29;;;;;;;4.57;1.38;;;9.30;82.40;;;;;;4914679;29;20040;-72
2023/03/27 13:00:58;;;;;;;3.58;0.90;;;9.40;83.10;;;;;;4914697;29;20048;-72
2023/03/27 13:03:37;;;;;;;3.00;0.60;;;9.20;84.00;;;;;;4914492;29;20474;-72
2023/03/27 13:06:34;;;;;;;1.40;0.40;;;9.20;84.40;;;;;;4914460;29;20115;-70
2023/03/27 13:09:16;;;;;;;;;;;9.70;83.60;;;;;;4915090;29;20431;-71
2023/03/27 13:12:14;;;;;;;2.95;0.60;;;9.50;83.70;;;;;;4914309;29;20256;-71
2023/03/27 13:14:43;;;;;;;3.08;0.52;;;9.60;84.60;;;;;;4914742;29;20032;-71
2023/03/27 13:17:29;;;;;;;1.92;0.77;;;9.60;85.10;;;;;;4914380;29;20031;-72
2023/03/27 13:20:00;;;;;;;5.85;0.85;;;9.90;84.70;;;;;;4914133;29;20063;-70